createdAt,value
2023-05-02T00:07:18.058Z,15.00
2023-05-02T00:11:43.691Z,14.90
2023-05-02T00:16:14.833Z,14.90
2023-05-02T00:20:21.308Z,14.90
2023-05-02T00:24:30.290Z,14.90
2023-05-02T00:28:38.290Z,14.80
2023-05-02T00:32:45.931Z,14.60
2023-05-02T00:36:50.225Z,14.40
2023-05-02T00:40:55.736Z,14.20
2023-05-02T00:44:59.967Z,14.10
2023-05-02T00:49:04.887Z,14.10
2023-05-02T00:53:14.372Z,14.00
2023-05-02T00:57:19.160Z,13.90
2023-05-02T01:01:56.680Z,13.80
2023-05-02T01:06:23.520Z,13.60
2023-05-02T01:10:39.699Z,13.50
2023-05-02T01:14:45.698Z,13.50
2023-05-02T01:18:50.673Z,13.50
2023-05-02T01:23:00.706Z,13.50
2023-05-02T01:27:12.122Z,13.40
2023-05-02T01:31:16.413Z,13.30
2023-05-02T01:35:21.222Z,13.40
2023-05-02T01:39:25.752Z,13.40
2023-05-02T01:43:28.589Z,13.40
2023-05-02T01:47:32.673Z,13.40
2023-05-02T01:51:37.641Z,13.40
2023-05-02T01:55:43.656Z,13.40
2023-05-02T01:59:50.516Z,13.40
2023-05-02T02:03:55.289Z,13.40
2023-05-02T02:07:58.674Z,13.30
2023-05-02T02:12:11.195Z,13.30
2023-05-02T02:16:17.277Z,13.20
2023-05-02T02:20:20.650Z,13.30
2023-05-02T02:24:24.234Z,13.20
2023-05-02T02:28:29.141Z,13.10
2023-05-02T02:32:31.675Z,13.10
2023-05-02T02:36:45.018Z,13.00
2023-05-02T02:41:02.009Z,13.00
2023-05-02T02:45:23.764Z,12.90
2023-05-02T02:49:36.502Z,13.00
2023-05-02T02:53:45.063Z,13.00
2023-05-02T02:57:50.655Z,13.00
2023-05-02T03:01:57.560Z,13.00
2023-05-02T03:06:00.642Z,13.00
2023-05-02T03:10:05.204Z,13.00
2023-05-02T03:14:09.866Z,13.00
2023-05-02T03:18:13.194Z,13.00
2023-05-02T03:22:16.676Z,13.00
2023-05-02T03:26:19.227Z,13.10
2023-05-02T03:30:22.466Z,13.10
2023-05-02T03:34:25.119Z,13.10
2023-05-02T03:38:29.991Z,13.20
2023-05-02T03:42:41.870Z,13.30
2023-05-02T03:46:56.910Z,13.30
2023-05-02T03:51:01.161Z,13.30
2023-05-02T03:55:06.027Z,13.30
2023-05-02T03:59:09.102Z,13.40
2023-05-02T04:07:43.272Z,13.50
2023-05-02T04:11:50.153Z,13.40
2023-05-02T04:16:00.148Z,13.50
2023-05-02T04:20:09.142Z,13.50
2023-05-02T04:24:14.868Z,13.50
2023-05-02T04:28:18.395Z,13.50
2023-05-02T04:32:21.627Z,13.50
2023-05-02T04:36:26.116Z,13.50
2023-05-02T04:40:28.882Z,13.60
2023-05-02T04:54:42.924Z,13.70
2023-05-02T04:58:49.945Z,13.80
2023-05-02T05:02:59.121Z,13.90
2023-05-02T05:07:05.730Z,13.90
2023-05-02T05:11:09.987Z,13.90
2023-05-02T05:15:15.513Z,13.90
2023-05-02T05:33:48.083Z,14.10
2023-05-02T05:38:16.840Z,14.20
2023-05-02T05:42:24.309Z,14.20
2023-05-02T05:46:31.193Z,14.30
2023-05-02T05:50:35.171Z,14.30
2023-05-02T05:54:38.942Z,14.40
2023-05-02T05:58:44.265Z,14.50
2023-05-02T06:02:50.721Z,14.50
2023-05-02T06:07:21.406Z,14.50
2023-05-02T06:11:39.935Z,14.60
2023-05-02T06:15:45.123Z,14.60
2023-05-02T06:19:51.859Z,14.70
2023-05-02T06:23:57.051Z,14.70
2023-05-02T06:28:04.789Z,14.90
2023-05-02T06:32:25.049Z,14.90
2023-05-02T06:36:27.775Z,15.00
2023-05-02T06:40:38.959Z,15.00
2023-05-02T06:44:58.149Z,15.00
2023-05-02T06:49:06.541Z,15.10
2023-05-02T06:53:26.919Z,15.10
2023-05-02T06:57:30.905Z,15.10
2023-05-02T07:01:36.195Z,15.10
2023-05-02T07:05:38.851Z,15.10
2023-05-02T07:09:41.664Z,15.20
2023-05-02T07:13:47.180Z,15.20
2023-05-02T07:17:50.380Z,15.20
2023-05-02T07:21:52.991Z,15.20
2023-05-02T07:25:55.653Z,15.20
2023-05-02T07:29:58.386Z,15.20
2023-05-02T07:34:02.430Z,15.20
2023-05-02T07:38:06.131Z,15.20
2023-05-02T07:42:11.902Z,15.20
2023-05-02T07:46:21.835Z,15.20
2023-05-02T07:55:02.135Z,15.20
2023-05-02T07:59:06.587Z,15.30
2023-05-02T08:03:38.365Z,15.40
2023-05-02T08:08:10.915Z,15.50
2023-05-02T08:12:14.711Z,15.50
2023-05-02T08:16:46.037Z,15.60
2023-05-02T08:20:52.575Z,15.70
2023-05-02T08:25:50.117Z,15.80
2023-05-02T08:29:53.467Z,15.80
2023-05-02T08:34:22.560Z,15.80
2023-05-02T08:38:32.227Z,15.90
2023-05-02T08:43:02.747Z,16.00
2023-05-02T08:47:11.471Z,16.20
2023-05-02T08:51:42.336Z,16.30
2023-05-02T08:55:46.377Z,16.30
2023-05-02T09:00:14.923Z,16.50
2023-05-02T09:04:23.341Z,16.60
2023-05-02T09:08:26.271Z,16.70
2023-05-02T09:12:34.972Z,17.00
2023-05-02T09:16:42.169Z,17.00
2023-05-02T09:27:25.698Z,17.10
2023-05-02T09:42:36.385Z,17.20
2023-05-02T09:53:04.607Z,17.70
2023-05-02T09:57:07.751Z,18.00
2023-05-02T10:01:17.847Z,18.10
2023-05-02T10:05:26.018Z,18.20
2023-05-02T10:09:30.168Z,18.30
2023-05-02T10:13:34.690Z,18.40
2023-05-02T10:23:33.591Z,18.80
2023-05-02T10:27:40.251Z,19.00
2023-05-02T11:01:31.060Z,19.50
2023-05-02T11:05:53.937Z,19.70
2023-05-02T11:10:16.298Z,19.80
2023-05-02T11:20:10.463Z,19.10
2023-05-02T11:24:32.595Z,18.60
2023-05-02T11:29:27.649Z,18.50
2023-05-02T11:33:36.417Z,18.40
2023-05-02T11:38:05.872Z,18.40
2023-05-02T11:42:09.017Z,18.40
2023-05-02T11:47:07.807Z,18.40
2023-05-02T11:51:14.121Z,18.50
2023-05-02T11:55:23.789Z,18.60
2023-05-02T12:05:45.358Z,19.00
2023-05-02T12:10:15.095Z,19.30
2023-05-02T12:14:30.414Z,19.60
2023-05-02T12:18:37.131Z,20.00
2023-05-02T12:22:44.328Z,20.20
2023-05-02T12:26:49.053Z,20.30
2023-05-02T12:31:22.104Z,20.30
2023-05-02T12:35:26.166Z,20.20
2023-05-02T12:40:01.165Z,20.20
2023-05-02T12:44:05.116Z,20.30
2023-05-02T12:48:38.051Z,20.40
2023-05-02T12:53:06.439Z,20.70
2023-05-02T12:57:09.434Z,20.70
2023-05-02T13:01:15.523Z,20.60
2023-05-02T13:05:23.441Z,20.70
2023-05-02T13:09:56.992Z,20.70
2023-05-02T13:14:27.151Z,20.80
2023-05-02T13:24:23.989Z,20.50
2023-05-02T13:28:26.939Z,20.10
2023-05-02T13:32:29.805Z,20.00
2023-05-02T13:36:40.772Z,19.80
2023-05-02T13:40:43.356Z,19.50
2023-05-02T13:44:46.092Z,19.50
2023-05-02T13:48:48.745Z,19.30
2023-05-02T13:52:51.371Z,19.20
2023-05-02T13:56:54.225Z,19.30
2023-05-02T14:00:57.097Z,19.30
2023-05-02T14:05:00.829Z,19.30
2023-05-02T14:09:05.171Z,19.30
2023-05-02T14:13:07.702Z,19.40
2023-05-02T14:17:10.263Z,19.30
2023-05-02T14:21:12.852Z,19.40
2023-05-02T14:25:15.911Z,19.40
2023-05-02T14:29:21.749Z,19.30
2023-05-02T14:33:24.652Z,19.50
2023-05-02T14:37:27.268Z,19.70
2023-05-02T14:41:30.306Z,19.70
2023-05-02T14:45:32.907Z,19.70
2023-05-02T14:49:35.389Z,19.60
2023-05-02T14:53:38.251Z,19.30
2023-05-02T14:57:40.936Z,19.00
2023-05-02T15:01:43.400Z,19.00
2023-05-02T15:05:46.142Z,18.80
2023-05-02T15:09:58.136Z,18.80
2023-05-02T15:14:01.344Z,18.70
2023-05-02T15:18:04.222Z,18.50
2023-05-02T15:22:06.935Z,18.50
2023-05-02T15:26:09.486Z,18.40
2023-05-02T15:30:12.113Z,18.30
2023-05-02T15:34:15.251Z,18.10
2023-05-02T15:38:17.820Z,18.00
2023-05-02T15:42:28.784Z,17.90
2023-05-02T15:46:31.507Z,17.80
2023-05-02T15:50:35.230Z,17.70
2023-05-02T15:54:39.350Z,17.60
2023-05-02T15:58:42.143Z,17.60
2023-05-02T16:02:45.014Z,17.60
2023-05-02T16:06:56.185Z,17.60
2023-05-02T16:11:01.403Z,17.60
2023-05-02T16:15:07.067Z,17.60
2023-05-02T16:19:13.506Z,17.60
2023-05-02T16:23:16.255Z,17.60
2023-05-02T16:27:18.705Z,17.60
2023-05-02T16:31:21.317Z,17.70
2023-05-02T16:35:23.905Z,17.60
2023-05-02T16:39:26.864Z,17.70
2023-05-02T16:43:29.791Z,17.70
2023-05-02T16:47:34.340Z,17.70
2023-05-02T16:51:36.812Z,17.60
2023-05-02T16:55:39.316Z,17.60
2023-05-02T16:59:41.970Z,17.60
2023-05-02T17:03:44.553Z,17.60
2023-05-02T17:07:47.067Z,17.50
2023-05-02T17:11:50.222Z,17.50
2023-05-02T17:15:55.906Z,17.50
2023-05-02T17:19:58.493Z,17.50
2023-05-02T17:24:01.688Z,17.40
2023-05-02T17:28:04.280Z,17.40
2023-05-02T17:32:07.042Z,17.30
2023-05-02T17:36:18.645Z,17.20
2023-05-02T17:40:21.513Z,17.20
2023-05-02T17:44:25.030Z,17.20
2023-05-02T17:48:28.217Z,17.10
2023-05-02T17:52:32.173Z,17.00
2023-05-02T17:56:35.137Z,17.00
2023-05-02T18:00:38.090Z,17.00
2023-05-02T18:04:42.746Z,17.00
2023-05-02T18:08:49.333Z,16.90
2023-05-02T18:12:57.488Z,16.90
2023-05-02T18:17:00.038Z,16.80
2023-05-02T18:21:05.792Z,16.80
2023-05-02T18:25:08.458Z,16.80
2023-05-02T18:29:11.332Z,16.80
2023-05-02T18:33:14.398Z,16.80
2023-05-02T18:37:17.012Z,16.80
2023-05-02T18:41:19.882Z,16.80
2023-05-02T18:54:10.545Z,16.80
2023-05-02T18:58:22.632Z,16.80
2023-05-02T19:02:26.812Z,16.70
2023-05-02T19:06:31.243Z,16.70
2023-05-02T19:11:04.883Z,16.80
2023-05-02T19:15:15.312Z,16.70
2023-05-02T19:19:40.447Z,16.70
2023-05-02T19:29:22.293Z,16.70
2023-05-02T19:33:33.332Z,16.70
2023-05-02T19:37:38.645Z,16.60
2023-05-02T19:41:42.529Z,16.60
2023-05-02T19:45:45.105Z,16.60
2023-05-02T19:49:47.749Z,16.60
2023-05-02T19:53:50.270Z,16.50
2023-05-02T19:57:52.809Z,16.50
2023-05-02T20:01:55.302Z,16.50
2023-05-02T20:05:58.692Z,16.50
2023-05-02T20:10:01.521Z,16.50
2023-05-02T20:14:04.295Z,16.40
2023-05-02T20:18:06.920Z,16.30
2023-05-02T20:22:12.814Z,16.10
2023-05-02T20:26:28.234Z,16.10
2023-05-02T20:30:32.532Z,15.90
2023-05-02T20:34:40.933Z,15.80
2023-05-02T20:38:44.896Z,15.80
2023-05-02T20:42:50.342Z,15.80
2023-05-02T20:46:52.882Z,15.80
2023-05-02T20:51:00.780Z,15.80
2023-05-02T20:55:04.402Z,15.70
2023-05-02T20:59:07.334Z,15.60
2023-05-02T21:03:10.004Z,15.50
2023-05-02T21:07:12.660Z,15.50
2023-05-02T21:11:16.895Z,15.50
2023-05-02T21:15:19.396Z,15.50
2023-05-02T21:19:29.543Z,15.50
2023-05-02T21:23:32.187Z,15.50
2023-05-02T21:27:34.779Z,15.50
2023-05-02T21:31:39.677Z,15.50
2023-05-02T21:35:42.865Z,15.50
2023-05-02T21:39:47.697Z,15.50
2023-05-02T21:43:52.955Z,15.50
2023-05-02T21:47:57.651Z,15.50
2023-05-02T21:52:01.721Z,15.50
2023-05-02T21:56:05.933Z,15.50
2023-05-02T22:00:11.384Z,15.60
2023-05-02T22:04:14.262Z,15.60
2023-05-02T22:08:17.631Z,15.60
2023-05-02T22:12:20.303Z,15.60
2023-05-02T22:16:22.947Z,15.60
2023-05-02T22:20:25.942Z,15.60
2023-05-02T22:24:31.712Z,15.50
2023-05-02T22:28:34.122Z,15.50
2023-05-02T22:32:37.020Z,15.60
2023-05-02T22:36:39.614Z,15.60
2023-05-02T22:40:42.361Z,15.60
2023-05-02T22:44:54.125Z,15.50
2023-05-02T22:48:57.290Z,15.50
2023-05-02T22:53:00.231Z,15.40
2023-05-02T22:57:03.058Z,15.50
2023-05-02T23:01:05.632Z,15.50
2023-05-02T23:05:09.434Z,15.50
2023-05-02T23:09:11.962Z,15.50
2023-05-02T23:13:14.512Z,15.50
2023-05-02T23:17:17.081Z,15.50
2023-05-02T23:21:19.669Z,15.50
2023-05-02T23:25:22.830Z,15.50
2023-05-02T23:29:26.288Z,15.50
2023-05-02T23:33:29.748Z,15.50
2023-05-02T23:37:32.473Z,15.50
2023-05-02T23:41:35.541Z,15.50
2023-05-02T23:45:38.177Z,15.60
2023-05-02T23:49:40.923Z,15.60
2023-05-02T23:53:43.526Z,15.60
2023-05-02T23:57:46.319Z,15.60
